sensor_id;sensor_type;location;lat;lon;timestamp;pressure;altitude;pressure_sealevel;temperature
64960;BMP180;51487;52.266;10.542;2024-02-16T00:01:18;100410.00;;;10.60
64960;BMP180;51487;52.266;10.542;2024-02-16T00:03:44;100409.00;;;10.60
64960;BMP180;51487;52.266;10.542;2024-02-16T00:06:09;100408.00;;;10.60
64960;BMP180;51487;52.266;10.542;2024-02-16T00:08:37;100408.00;;;10.50
64960;BMP180;51487;52.266;10.542;2024-02-16T00:11:04;100409.00;;;10.50
64960;BMP180;51487;52.266;10.542;2024-02-16T00:13:30;100409.00;;;10.50
64960;BMP180;51487;52.266;10.542;2024-02-16T00:15:56;100399.00;;;10.50
64960;BMP180;51487;52.266;10.542;2024-02-16T00:18:22;100404.00;;;10.40
64960;BMP180;51487;52.266;10.542;2024-02-16T00:20:48;100397.00;;;10.50
64960;BMP180;51487;52.266;10.542;2024-02-16T00:23:13;100393.00;;;10.50
64960;BMP180;51487;52.266;10.542;2024-02-16T00:25:39;100398.00;;;10.50
64960;BMP180;51487;52.266;10.542;2024-02-16T00:28:05;100390.00;;;10.50
64960;BMP180;51487;52.266;10.542;2024-02-16T00:30:31;100385.00;;;10.50
64960;BMP180;51487;52.266;10.542;2024-02-16T00:32:56;100374.00;;;10.50
64960;BMP180;51487;52.266;10.542;2024-02-16T00:35:22;100380.00;;;10.50
64960;BMP180;51487;52.266;10.542;2024-02-16T00:37:47;100384.00;;;10.60
64960;BMP180;51487;52.266;10.542;2024-02-16T00:40:13;100373.00;;;10.60
64960;BMP180;51487;52.266;10.542;2024-02-16T00:42:38;100369.00;;;10.50
64960;BMP180;51487;52.266;10.542;2024-02-16T00:45:05;100366.00;;;10.50
64960;BMP180;51487;52.266;10.542;2024-02-16T00:47:31;100364.00;;;10.60
64960;BMP180;51487;52.266;10.542;2024-02-16T00:49:56;100368.00;;;10.60
64960;BMP180;51487;52.266;10.542;2024-02-16T00:52:22;100367.00;;;10.70
64960;BMP180;51487;52.266;10.542;2024-02-16T00:54:49;100370.00;;;10.70
64960;BMP180;51487;52.266;10.542;2024-02-16T00:57:15;100367.00;;;10.60
64960;BMP180;51487;52.266;10.542;2024-02-16T00:59:41;100353.00;;;10.60
64960;BMP180;51487;52.266;10.542;2024-02-16T01:02:07;100359.00;;;10.60
64960;BMP180;51487;52.266;10.542;2024-02-16T01:04:33;100363.00;;;10.50
64960;BMP180;51487;52.266;10.542;2024-02-16T01:06:59;100351.00;;;10.50
64960;BMP180;51487;52.266;10.542;2024-02-16T01:09:25;100355.00;;;10.50
64960;BMP180;51487;52.266;10.542;2024-02-16T01:11:52;100352.00;;;10.50
64960;BMP180;51487;52.266;10.542;2024-02-16T01:14:18;100347.00;;;10.50
64960;BMP180;51487;52.266;10.542;2024-02-16T01:16:44;100338.00;;;10.50
64960;BMP180;51487;52.266;10.542;2024-02-16T01:19:10;100340.00;;;10.40
64960;BMP180;51487;52.266;10.542;2024-02-16T01:21:36;100341.00;;;10.40
64960;BMP180;51487;52.266;10.542;2024-02-16T01:24:01;100318.00;;;10.40
64960;BMP180;51487;52.266;10.542;2024-02-16T01:26:27;100310.00;;;10.40
64960;BMP180;51487;52.266;10.542;2024-02-16T01:28:53;100309.00;;;10.40
64960;BMP180;51487;52.266;10.542;2024-02-16T01:31:19;100308.00;;;10.40
64960;BMP180;51487;52.266;10.542;2024-02-16T01:33:44;100307.00;;;10.30
64960;BMP180;51487;52.266;10.542;2024-02-16T01:36:10;100301.00;;;10.30
64960;BMP180;51487;52.266;10.542;2024-02-16T01:38:38;100301.00;;;10.40
64960;BMP180;51487;52.266;10.542;2024-02-16T01:41:04;100296.00;;;10.30
64960;BMP180;51487;52.266;10.542;2024-02-16T01:43:30;100294.00;;;10.30
64960;BMP180;51487;52.266;10.542;2024-02-16T01:45:56;100303.00;;;10.20
64960;BMP180;51487;52.266;10.542;2024-02-16T01:48:24;100288.00;;;10.20
64960;BMP180;51487;52.266;10.542;2024-02-16T01:50:50;100279.00;;;10.20
64960;BMP180;51487;52.266;10.542;2024-02-16T01:53:16;100276.00;;;10.20
64960;BMP180;51487;52.266;10.542;2024-02-16T01:55:45;100277.00;;;10.20
64960;BMP180;51487;52.266;10.542;2024-02-16T01:58:11;100270.00;;;10.20
64960;BMP180;51487;52.266;10.542;2024-02-16T02:00:37;100280.00;;;10.20
64960;BMP180;51487;52.266;10.542;2024-02-16T02:03:03;100279.00;;;10.30
64960;BMP180;51487;52.266;10.542;2024-02-16T02:05:29;100281.00;;;10.30
64960;BMP180;51487;52.266;10.542;2024-02-16T02:07:57;100294.00;;;10.30
64960;BMP180;51487;52.266;10.542;2024-02-16T02:10:22;100284.00;;;10.30
64960;BMP180;51487;52.266;10.542;2024-02-16T02:12:48;100284.00;;;10.30
64960;BMP180;51487;52.266;10.542;2024-02-16T02:15:13;100276.00;;;10.30
64960;BMP180;51487;52.266;10.542;2024-02-16T02:17:38;100282.00;;;10.30
64960;BMP180;51487;52.266;10.542;2024-02-16T02:20:04;100279.00;;;10.20
64960;BMP180;51487;52.266;10.542;2024-02-16T02:22:34;100276.00;;;10.20
64960;BMP180;51487;52.266;10.542;2024-02-16T02:24:59;100276.00;;;10.20
64960;BMP180;51487;52.266;10.542;2024-02-16T02:27:25;100270.00;;;10.20
64960;BMP180;51487;52.266;10.542;2024-02-16T02:29:50;100275.00;;;10.10
64960;BMP180;51487;52.266;10.542;2024-02-16T02:32:16;100265.00;;;10.10
64960;BMP180;51487;52.266;10.542;2024-02-16T02:34:42;100262.00;;;10.10
64960;BMP180;51487;52.266;10.542;2024-02-16T02:37:08;100259.00;;;10.10
64960;BMP180;51487;52.266;10.542;2024-02-16T02:39:34;100258.00;;;10.10
64960;BMP180;51487;52.266;10.542;2024-02-16T02:42:00;100255.00;;;10.00
64960;BMP180;51487;52.266;10.542;2024-02-16T02:44:26;100252.00;;;10.00
64960;BMP180;51487;52.266;10.542;2024-02-16T02:46:51;100254.00;;;10.00
64960;BMP180;51487;52.266;10.542;2024-02-16T02:49:18;100248.00;;;10.00
64960;BMP180;51487;52.266;10.542;2024-02-16T02:51:44;100251.00;;;10.00
64960;BMP180;51487;52.266;10.542;2024-02-16T02:54:09;100232.00;;;10.00
64960;BMP180;51487;52.266;10.542;2024-02-16T02:56:35;100244.00;;;9.90
64960;BMP180;51487;52.266;10.542;2024-02-16T02:59:00;100244.00;;;9.90
64960;BMP180;51487;52.266;10.542;2024-02-16T03:01:26;100231.00;;;9.90
64960;BMP180;51487;52.266;10.542;2024-02-16T03:03:51;100225.00;;;9.80
64960;BMP180;51487;52.266;10.542;2024-02-16T03:06:18;100232.00;;;9.80
64960;BMP180;51487;52.266;10.542;2024-02-16T03:08:44;100226.00;;;9.70
64960;BMP180;51487;52.266;10.542;2024-02-16T03:11:10;100230.00;;;9.70
64960;BMP180;51487;52.266;10.542;2024-02-16T03:13:36;100236.00;;;9.70
64960;BMP180;51487;52.266;10.542;2024-02-16T03:16:01;100220.00;;;9.60
64960;BMP180;51487;52.266;10.542;2024-02-16T03:18:32;100224.00;;;9.50
64960;BMP180;51487;52.266;10.542;2024-02-16T03:20:58;100225.00;;;9.50
64960;BMP180;51487;52.266;10.542;2024-02-16T03:23:24;100236.00;;;9.50
64960;BMP180;51487;52.266;10.542;2024-02-16T03:25:49;100234.00;;;9.50
64960;BMP180;51487;52.266;10.542;2024-02-16T03:28:15;100232.00;;;9.40
64960;BMP180;51487;52.266;10.542;2024-02-16T03:30:41;100234.00;;;9.40
64960;BMP180;51487;52.266;10.542;2024-02-16T03:33:08;100230.00;;;9.40
64960;BMP180;51487;52.266;10.542;2024-02-16T03:35:33;100224.00;;;9.30
64960;BMP180;51487;52.266;10.542;2024-02-16T03:37:59;100228.00;;;9.30
64960;BMP180;51487;52.266;10.542;2024-02-16T03:40:26;100227.00;;;9.30
64960;BMP180;51487;52.266;10.542;2024-02-16T03:42:52;100224.00;;;9.30
64960;BMP180;51487;52.266;10.542;2024-02-16T03:45:18;100221.00;;;9.30
64960;BMP180;51487;52.266;10.542;2024-02-16T03:47:44;100228.00;;;9.20
64960;BMP180;51487;52.266;10.542;2024-02-16T03:50:10;100230.00;;;9.30
64960;BMP180;51487;52.266;10.542;2024-02-16T03:52:36;100228.00;;;9.40
64960;BMP180;51487;52.266;10.542;2024-02-16T03:55:02;100225.00;;;9.30
64960;BMP180;51487;52.266;10.542;2024-02-16T03:57:30;100225.00;;;9.30
64960;BMP180;51487;52.266;10.542;2024-02-16T03:59:56;100218.00;;;9.30
64960;BMP180;51487;52.266;10.542;2024-02-16T04:02:22;100211.00;;;9.30
64960;BMP180;51487;52.266;10.542;2024-02-16T04:04:47;100204.00;;;9.40
64960;BMP180;51487;52.266;10.542;2024-02-16T04:07:13;100204.00;;;9.40
64960;BMP180;51487;52.266;10.542;2024-02-16T04:09:38;100203.00;;;9.40
64960;BMP180;51487;52.266;10.542;2024-02-16T04:12:04;100207.00;;;9.40
64960;BMP180;51487;52.266;10.542;2024-02-16T04:14:30;100215.00;;;9.40
64960;BMP180;51487;52.266;10.542;2024-02-16T04:16:59;100207.00;;;9.40
64960;BMP180;51487;52.266;10.542;2024-02-16T04:19:28;100206.00;;;9.40
64960;BMP180;51487;52.266;10.542;2024-02-16T04:21:54;100207.00;;;9.40
64960;BMP180;51487;52.266;10.542;2024-02-16T04:24:20;100204.00;;;9.50
64960;BMP180;51487;52.266;10.542;2024-02-16T04:26:46;100207.00;;;9.50
64960;BMP180;51487;52.266;10.542;2024-02-16T04:29:12;100201.00;;;9.50
64960;BMP180;51487;52.266;10.542;2024-02-16T04:31:41;100203.00;;;9.50
64960;BMP180;51487;52.266;10.542;2024-02-16T04:34:08;100204.00;;;9.50
64960;BMP180;51487;52.266;10.542;2024-02-16T04:36:34;100192.00;;;9.50
64960;BMP180;51487;52.266;10.542;2024-02-16T04:39:00;100190.00;;;9.50
64960;BMP180;51487;52.266;10.542;2024-02-16T04:41:26;100191.00;;;9.50
64960;BMP180;51487;52.266;10.542;2024-02-16T04:43:52;100194.00;;;9.50
64960;BMP180;51487;52.266;10.542;2024-02-16T04:46:18;100191.00;;;9.60
64960;BMP180;51487;52.266;10.542;2024-02-16T04:48:44;100193.00;;;9.60
64960;BMP180;51487;52.266;10.542;2024-02-16T04:51:11;100189.00;;;9.60
64960;BMP180;51487;52.266;10.542;2024-02-16T04:53:36;100190.00;;;9.60
64960;BMP180;51487;52.266;10.542;2024-02-16T04:56:02;100188.00;;;9.60
64960;BMP180;51487;52.266;10.542;2024-02-16T04:58:28;100194.00;;;9.70
64960;BMP180;51487;52.266;10.542;2024-02-16T05:00:54;100195.00;;;9.70
64960;BMP180;51487;52.266;10.542;2024-02-16T05:03:19;100191.00;;;9.70
64960;BMP180;51487;52.266;10.542;2024-02-16T05:05:45;100188.00;;;9.70
64960;BMP180;51487;52.266;10.542;2024-02-16T05:08:11;100198.00;;;9.80
64960;BMP180;51487;52.266;10.542;2024-02-16T05:10:37;100189.00;;;9.80
64960;BMP180;51487;52.266;10.542;2024-02-16T05:13:03;100192.00;;;9.90
64960;BMP180;51487;52.266;10.542;2024-02-16T05:15:29;100187.00;;;10.00
64960;BMP180;51487;52.266;10.542;2024-02-16T05:17:56;100184.00;;;10.10
64960;BMP180;51487;52.266;10.542;2024-02-16T05:20:22;100190.00;;;10.20
64960;BMP180;51487;52.266;10.542;2024-02-16T05:22:48;100185.00;;;10.20
64960;BMP180;51487;52.266;10.542;2024-02-16T05:25:15;100182.00;;;10.20
64960;BMP180;51487;52.266;10.542;2024-02-16T05:27:43;100183.00;;;10.30
64960;BMP180;51487;52.266;10.542;2024-02-16T05:30:10;100188.00;;;10.30
64960;BMP180;51487;52.266;10.542;2024-02-16T05:32:38;100191.00;;;10.30
64960;BMP180;51487;52.266;10.542;2024-02-16T05:35:04;100184.00;;;10.30
64960;BMP180;51487;52.266;10.542;2024-02-16T05:37:39;100191.00;;;10.40
64960;BMP180;51487;52.266;10.542;2024-02-16T05:40:08;100193.00;;;10.40
64960;BMP180;51487;52.266;10.542;2024-02-16T05:42:46;100189.00;;;10.40
64960;BMP180;51487;52.266;10.542;2024-02-16T05:45:12;100190.00;;;10.50
64960;BMP180;51487;52.266;10.542;2024-02-16T05:47:38;164298.00;;;209.30
64960;BMP180;51487;52.266;10.542;2024-02-16T05:50:04;164314.00;;;209.30
64960;BMP180;51487;52.266;10.542;2024-02-16T05:52:31;164326.00;;;209.30
64960;BMP180;51487;52.266;10.542;2024-02-16T05:54:57;125759.00;;;209.30
64960;BMP180;51487;52.266;10.542;2024-02-16T05:57:23;125759.00;;;209.30
64960;BMP180;51487;52.266;10.542;2024-02-16T05:59:49;125759.00;;;209.30
64960;BMP180;51487;52.266;10.542;2024-02-16T06:02:17;125759.00;;;209.30
64960;BMP180;51487;52.266;10.542;2024-02-16T06:04:43;125759.00;;;209.30
64960;BMP180;51487;52.266;10.542;2024-02-16T06:07:09;125759.00;;;209.30
64960;BMP180;51487;52.266;10.542;2024-02-16T06:09:34;125759.00;;;209.30
64960;BMP180;51487;52.266;10.542;2024-02-16T06:12:01;125759.00;;;209.30
64960;BMP180;51487;52.266;10.542;2024-02-16T06:14:30;125759.00;;;209.30
64960;BMP180;51487;52.266;10.542;2024-02-16T06:16:56;125759.00;;;209.30
64960;BMP180;51487;52.266;10.542;2024-02-16T06:19:22;125759.00;;;209.30
64960;BMP180;51487;52.266;10.542;2024-02-16T06:21:47;125759.00;;;209.30
64960;BMP180;51487;52.266;10.542;2024-02-16T06:24:13;125759.00;;;209.30
64960;BMP180;51487;52.266;10.542;2024-02-16T06:26:38;125759.00;;;209.30
64960;BMP180;51487;52.266;10.542;2024-02-16T06:29:04;125759.00;;;209.30
64960;BMP180;51487;52.266;10.542;2024-02-16T06:31:29;125759.00;;;209.30
64960;BMP180;51487;52.266;10.542;2024-02-16T06:33:55;125759.00;;;209.30
64960;BMP180;51487;52.266;10.542;2024-02-16T06:36:22;125759.00;;;209.30
64960;BMP180;51487;52.266;10.542;2024-02-16T06:38:48;125759.00;;;209.30
64960;BMP180;51487;52.266;10.542;2024-02-16T06:41:13;125759.00;;;209.30
64960;BMP180;51487;52.266;10.542;2024-02-16T06:43:39;125759.00;;;209.30
64960;BMP180;51487;52.266;10.542;2024-02-16T06:46:05;125759.00;;;209.30
64960;BMP180;51487;52.266;10.542;2024-02-16T06:48:30;125759.00;;;209.30
64960;BMP180;51487;52.266;10.542;2024-02-16T06:50:56;125759.00;;;209.30
64960;BMP180;51487;52.266;10.542;2024-02-16T06:53:21;125759.00;;;209.30
64960;BMP180;51487;52.266;10.542;2024-02-16T06:55:47;125759.00;;;209.30
64960;BMP180;51487;52.266;10.542;2024-02-16T06:58:13;125759.00;;;209.30
64960;BMP180;51487;52.266;10.542;2024-02-16T07:00:38;125759.00;;;209.30
64960;BMP180;51487;52.266;10.542;2024-02-16T07:03:07;125759.00;;;209.30
64960;BMP180;51487;52.266;10.542;2024-02-16T07:05:34;125759.00;;;209.30
64960;BMP180;51487;52.266;10.542;2024-02-16T07:07:59;125759.00;;;209.30
64960;BMP180;51487;52.266;10.542;2024-02-16T07:10:25;125759.00;;;209.30
64960;BMP180;51487;52.266;10.542;2024-02-16T07:12:50;164629.00;;;209.30
64960;BMP180;51487;52.266;10.542;2024-02-16T07:15:16;125759.00;;;209.30
64960;BMP180;51487;52.266;10.542;2024-02-16T07:17:41;125759.00;;;209.30
64960;BMP180;51487;52.266;10.542;2024-02-16T07:20:07;125759.00;;;209.30
64960;BMP180;51487;52.266;10.542;2024-02-16T07:22:33;125759.00;;;209.30
64960;BMP180;51487;52.266;10.542;2024-02-16T07:24:59;125759.00;;;209.30
64960;BMP180;51487;52.266;10.542;2024-02-16T07:27:30;125759.00;;;209.30
64960;BMP180;51487;52.266;10.542;2024-02-16T07:29:56;125759.00;;;209.30
64960;BMP180;51487;52.266;10.542;2024-02-16T07:32:25;125759.00;;;209.30
64960;BMP180;51487;52.266;10.542;2024-02-16T07:34:50;125759.00;;;209.30
64960;BMP180;51487;52.266;10.542;2024-02-16T07:37:16;125759.00;;;209.30
64960;BMP180;51487;52.266;10.542;2024-02-16T07:39:42;125759.00;;;209.30
64960;BMP180;51487;52.266;10.542;2024-02-16T07:42:07;125759.00;;;209.30
64960;BMP180;51487;52.266;10.542;2024-02-16T07:44:35;125759.00;;;209.30
64960;BMP180;51487;52.266;10.542;2024-02-16T07:47:01;125759.00;;;209.30
64960;BMP180;51487;52.266;10.542;2024-02-16T07:49:27;125759.00;;;209.30
64960;BMP180;51487;52.266;10.542;2024-02-16T07:51:53;125759.00;;;209.30
64960;BMP180;51487;52.266;10.542;2024-02-16T07:54:18;125759.00;;;209.30
64960;BMP180;51487;52.266;10.542;2024-02-16T07:56:44;125759.00;;;209.30
64960;BMP180;51487;52.266;10.542;2024-02-16T07:59:09;125759.00;;;209.30
64960;BMP180;51487;52.266;10.542;2024-02-16T08:01:35;125759.00;;;209.30
64960;BMP180;51487;52.266;10.542;2024-02-16T08:04:00;125759.00;;;209.30
64960;BMP180;51487;52.266;10.542;2024-02-16T08:06:26;125759.00;;;209.30
64960;BMP180;51487;52.266;10.542;2024-02-16T08:08:53;125759.00;;;209.30
64960;BMP180;51487;52.266;10.542;2024-02-16T08:11:19;231480.00;;;209.30
64960;BMP180;51487;52.266;10.542;2024-02-16T08:13:45;231480.00;;;209.30
64960;BMP180;51487;52.266;10.542;2024-02-16T08:16:11;231480.00;;;209.30
64960;BMP180;51487;52.266;10.542;2024-02-16T08:18:37;231476.00;;;209.30
64960;BMP180;51487;52.266;10.542;2024-02-16T08:21:02;231476.00;;;209.30
64960;BMP180;51487;52.266;10.542;2024-02-16T08:23:28;231480.00;;;209.30
64960;BMP180;51487;52.266;10.542;2024-02-16T08:25:53;231476.00;;;209.30
64960;BMP180;51487;52.266;10.542;2024-02-16T08:28:19;231480.00;;;209.30
64960;BMP180;51487;52.266;10.542;2024-02-16T08:30:44;231480.00;;;209.30
64960;BMP180;51487;52.266;10.542;2024-02-16T08:33:10;231480.00;;;209.30
64960;BMP180;51487;52.266;10.542;2024-02-16T08:35:38;231476.00;;;209.30
64960;BMP180;51487;52.266;10.542;2024-02-16T08:38:04;231476.00;;;209.30
64960;BMP180;51487;52.266;10.542;2024-02-16T08:40:30;231476.00;;;209.30
64960;BMP180;51487;52.266;10.542;2024-02-16T08:42:55;231480.00;;;209.30
64960;BMP180;51487;52.266;10.542;2024-02-16T08:45:21;231476.00;;;209.30
64960;BMP180;51487;52.266;10.542;2024-02-16T08:47:46;231476.00;;;209.30
64960;BMP180;51487;52.266;10.542;2024-02-16T08:50:12;231476.00;;;209.30
64960;BMP180;51487;52.266;10.542;2024-02-16T08:52:38;231476.00;;;209.30
64960;BMP180;51487;52.266;10.542;2024-02-16T08:55:04;231476.00;;;209.30
64960;BMP180;51487;52.266;10.542;2024-02-16T08:57:31;231480.00;;;209.30
64960;BMP180;51487;52.266;10.542;2024-02-16T08:59:57;231476.00;;;209.30
64960;BMP180;51487;52.266;10.542;2024-02-16T09:02:23;231476.00;;;209.30
64960;BMP180;51487;52.266;10.542;2024-02-16T09:04:48;231476.00;;;209.30
64960;BMP180;51487;52.266;10.542;2024-02-16T09:07:14;231476.00;;;209.30
64960;BMP180;51487;52.266;10.542;2024-02-16T09:09:39;231476.00;;;209.30
64960;BMP180;51487;52.266;10.542;2024-02-16T09:12:05;231476.00;;;209.30
64960;BMP180;51487;52.266;10.542;2024-02-16T09:14:30;231476.00;;;209.30
64960;BMP180;51487;52.266;10.542;2024-02-16T09:16:57;231476.00;;;209.30
64960;BMP180;51487;52.266;10.542;2024-02-16T09:19:23;231476.00;;;209.30
64960;BMP180;51487;52.266;10.542;2024-02-16T09:21:48;231476.00;;;209.30
64960;BMP180;51487;52.266;10.542;2024-02-16T09:24:19;231476.00;;;209.30
64960;BMP180;51487;52.266;10.542;2024-02-16T09:26:45;231476.00;;;209.30
64960;BMP180;51487;52.266;10.542;2024-02-16T09:29:14;231476.00;;;209.30
64960;BMP180;51487;52.266;10.542;2024-02-16T09:31:40;231480.00;;;209.30
64960;BMP180;51487;52.266;10.542;2024-02-16T09:34:06;231476.00;;;209.30
64960;BMP180;51487;52.266;10.542;2024-02-16T09:36:32;231476.00;;;209.30
64960;BMP180;51487;52.266;10.542;2024-02-16T09:38:57;231476.00;;;209.30
64960;BMP180;51487;52.266;10.542;2024-02-16T09:41:23;231476.00;;;209.30
64960;BMP180;51487;52.266;10.542;2024-02-16T09:43:49;231476.00;;;209.30
64960;BMP180;51487;52.266;10.542;2024-02-16T09:46:19;231476.00;;;209.30
64960;BMP180;51487;52.266;10.542;2024-02-16T09:48:47;231476.00;;;209.30
64960;BMP180;51487;52.266;10.542;2024-02-16T09:51:17;125759.00;;;209.30
64960;BMP180;51487;52.266;10.542;2024-02-16T09:53:43;125759.00;;;209.30
64960;BMP180;51487;52.266;10.542;2024-02-16T09:56:17;231476.00;;;209.30
64960;BMP180;51487;52.266;10.542;2024-02-16T09:58:42;125759.00;;;209.30
64960;BMP180;51487;52.266;10.542;2024-02-16T10:01:17;125759.00;;;209.30
64960;BMP180;51487;52.266;10.542;2024-02-16T10:03:46;231476.00;;;209.30
64960;BMP180;51487;52.266;10.542;2024-02-16T10:06:13;231476.00;;;209.30
64960;BMP180;51487;52.266;10.542;2024-02-16T10:11:14;125759.00;;;209.30
64960;BMP180;51487;52.266;10.542;2024-02-16T10:13:41;231476.00;;;209.30
64960;BMP180;51487;52.266;10.542;2024-02-16T10:16:10;231476.00;;;209.30
64960;BMP180;51487;52.266;10.542;2024-02-16T10:18:37;125759.00;;;209.30
64960;BMP180;51487;52.266;10.542;2024-02-16T10:21:04;231476.00;;;209.30
64960;BMP180;51487;52.266;10.542;2024-02-16T10:23:30;231476.00;;;209.30
64960;BMP180;51487;52.266;10.542;2024-02-16T10:25:57;231476.00;;;209.30
64960;BMP180;51487;52.266;10.542;2024-02-16T10:28:24;231476.00;;;209.30
64960;BMP180;51487;52.266;10.542;2024-02-16T10:30:58;231476.00;;;209.30
64960;BMP180;51487;52.266;10.542;2024-02-16T10:33:27;231476.00;;;209.30
64960;BMP180;51487;52.266;10.542;2024-02-16T10:35:56;231476.00;;;209.30
64960;BMP180;51487;52.266;10.542;2024-02-16T10:38:25;231476.00;;;209.30
64960;BMP180;51487;52.266;10.542;2024-02-16T10:40:53;231476.00;;;209.30
64960;BMP180;51487;52.266;10.542;2024-02-16T10:43:20;231476.00;;;209.30
64960;BMP180;51487;52.266;10.542;2024-02-16T10:45:47;125759.00;;;209.30
64960;BMP180;51487;52.266;10.542;2024-02-16T10:48:17;231480.00;;;209.30
64960;BMP180;51487;52.266;10.542;2024-02-16T10:50:43;125759.00;;;209.30
64960;BMP180;51487;52.266;10.542;2024-02-16T10:53:20;125759.00;;;209.30
64960;BMP180;51487;52.266;10.542;2024-02-16T10:55:49;231476.00;;;209.30
64960;BMP180;51487;52.266;10.542;2024-02-16T10:58:17;231476.00;;;209.30
64960;BMP180;51487;52.266;10.542;2024-02-16T11:00:54;231476.00;;;209.30
64960;BMP180;51487;52.266;10.542;2024-02-16T11:03:25;231476.00;;;209.30
64960;BMP180;51487;52.266;10.542;2024-02-16T11:05:52;231476.00;;;209.30
64960;BMP180;51487;52.266;10.542;2024-02-16T11:08:24;231476.00;;;209.30
64960;BMP180;51487;52.266;10.542;2024-02-16T11:10:57;231476.00;;;209.30
64960;BMP180;51487;52.266;10.542;2024-02-16T11:13:24;231476.00;;;209.30
64960;BMP180;51487;52.266;10.542;2024-02-16T11:16:06;231476.00;;;209.30
64960;BMP180;51487;52.266;10.542;2024-02-16T11:18:38;231476.00;;;209.30
64960;BMP180;51487;52.266;10.542;2024-02-16T11:21:05;231476.00;;;209.30
64960;BMP180;51487;52.266;10.542;2024-02-16T11:23:35;231476.00;;;209.30
64960;BMP180;51487;52.266;10.542;2024-02-16T11:26:05;231480.00;;;209.30
64960;BMP180;51487;52.266;10.542;2024-02-16T11:28:36;231476.00;;;209.30
64960;BMP180;51487;52.266;10.542;2024-02-16T11:31:03;231476.00;;;209.30
64960;BMP180;51487;52.266;10.542;2024-02-16T11:33:32;231476.00;;;209.30
64960;BMP180;51487;52.266;10.542;2024-02-16T11:36:03;231476.00;;;209.30
64960;BMP180;51487;52.266;10.542;2024-02-16T11:38:31;231476.00;;;209.30
64960;BMP180;51487;52.266;10.542;2024-02-16T11:41:05;231476.00;;;209.30
64960;BMP180;51487;52.266;10.542;2024-02-16T11:43:33;231476.00;;;209.30
64960;BMP180;51487;52.266;10.542;2024-02-16T11:45:59;231476.00;;;209.30
64960;BMP180;51487;52.266;10.542;2024-02-16T11:48:26;231476.00;;;209.30
64960;BMP180;51487;52.266;10.542;2024-02-16T11:51:02;231480.00;;;209.30
64960;BMP180;51487;52.266;10.542;2024-02-16T11:53:29;125759.00;;;209.30
64960;BMP180;51487;52.266;10.542;2024-02-16T11:55:56;231476.00;;;209.30
64960;BMP180;51487;52.266;10.542;2024-02-16T11:58:22;231476.00;;;209.30
64960;BMP180;51487;52.266;10.542;2024-02-16T12:00:49;231476.00;;;209.30
64960;BMP180;51487;52.266;10.542;2024-02-16T12:03:23;231476.00;;;209.30
64960;BMP180;51487;52.266;10.542;2024-02-16T12:05:51;231476.00;;;209.30
64960;BMP180;51487;52.266;10.542;2024-02-16T12:08:18;231476.00;;;209.30
64960;BMP180;51487;52.266;10.542;2024-02-16T12:10:46;231476.00;;;209.30
64960;BMP180;51487;52.266;10.542;2024-02-16T12:13:13;231476.00;;;209.30
64960;BMP180;51487;52.266;10.542;2024-02-16T12:15:38;231476.00;;;209.30
64960;BMP180;51487;52.266;10.542;2024-02-16T12:18:04;231480.00;;;209.30
64960;BMP180;51487;52.266;10.542;2024-02-16T12:20:30;125759.00;;;209.30
64960;BMP180;51487;52.266;10.542;2024-02-16T12:22:57;125759.00;;;209.30
64960;BMP180;51487;52.266;10.542;2024-02-16T12:25:25;125759.00;;;209.30
64960;BMP180;51487;52.266;10.542;2024-02-16T12:27:51;125759.00;;;209.30
64960;BMP180;51487;52.266;10.542;2024-02-16T12:30:17;125759.00;;;209.30
64960;BMP180;51487;52.266;10.542;2024-02-16T12:32:43;125759.00;;;209.30
64960;BMP180;51487;52.266;10.542;2024-02-16T12:35:08;125759.00;;;209.30
64960;BMP180;51487;52.266;10.542;2024-02-16T12:37:34;125759.00;;;209.30
64960;BMP180;51487;52.266;10.542;2024-02-16T12:40:00;125759.00;;;209.30
64960;BMP180;51487;52.266;10.542;2024-02-16T12:42:27;125759.00;;;209.30
64960;BMP180;51487;52.266;10.542;2024-02-16T12:44:52;125759.00;;;209.30
64960;BMP180;51487;52.266;10.542;2024-02-16T12:47:18;125759.00;;;209.30
64960;BMP180;51487;52.266;10.542;2024-02-16T12:49:43;125759.00;;;209.30
64960;BMP180;51487;52.266;10.542;2024-02-16T12:52:09;125759.00;;;209.30
64960;BMP180;51487;52.266;10.542;2024-02-16T12:54:34;125759.00;;;209.30
64960;BMP180;51487;52.266;10.542;2024-02-16T12:57:00;125759.00;;;209.30
64960;BMP180;51487;52.266;10.542;2024-02-16T12:59:25;125759.00;;;209.30
64960;BMP180;51487;52.266;10.542;2024-02-16T13:01:51;125759.00;;;209.30
64960;BMP180;51487;52.266;10.542;2024-02-16T13:04:17;125759.00;;;209.30
64960;BMP180;51487;52.266;10.542;2024-02-16T13:06:46;125759.00;;;209.30
64960;BMP180;51487;52.266;10.542;2024-02-16T13:09:12;125759.00;;;209.30
64960;BMP180;51487;52.266;10.542;2024-02-16T13:11:39;125759.00;;;209.30
64960;BMP180;51487;52.266;10.542;2024-02-16T13:14:05;125759.00;;;209.30
64960;BMP180;51487;52.266;10.542;2024-02-16T13:16:32;125759.00;;;209.30
64960;BMP180;51487;52.266;10.542;2024-02-16T13:18:57;125759.00;;;209.30
64960;BMP180;51487;52.266;10.542;2024-02-16T13:21:23;125759.00;;;209.30
64960;BMP180;51487;52.266;10.542;2024-02-16T13:23:48;125759.00;;;209.30
64960;BMP180;51487;52.266;10.542;2024-02-16T13:26:14;125759.00;;;209.30
64960;BMP180;51487;52.266;10.542;2024-02-16T13:28:40;125759.00;;;209.30
64960;BMP180;51487;52.266;10.542;2024-02-16T13:31:05;125759.00;;;209.30
64960;BMP180;51487;52.266;10.542;2024-02-16T13:33:31;125759.00;;;209.30
64960;BMP180;51487;52.266;10.542;2024-02-16T13:35:57;125759.00;;;209.30
64960;BMP180;51487;52.266;10.542;2024-02-16T13:38:22;125759.00;;;209.30